Time;durP1;ratioP1;P1;durP2;ratioP2;P2;SDS_P1;SDS_P2;PMS_P1;PMS_P2;Temp;Humidity;BMP_temperature;BMP_pressure;BME280_temperature;BME280_humidity;BME280_pressure;Samples;Min_cycle;Max_cycle;Signal;HPM_P1;HPM_P2
2022/01/23 00:00:19;;;;;;;40.67;37.87;;;7.60;99.90;;;;;;4956217;28;20198;-81
2022/01/23 00:02:50;;;;;;;40.33;37.63;;;7.60;99.90;;;;;;4983489;28;20235;-81
2022/01/23 00:05:19;;;;;;;40.57;37.97;;;7.60;99.90;;;;;;5001157;28;20195;-78
2022/01/23 00:07:46;;;;;;;40.93;37.83;;;7.60;99.90;;;;;;5009440;28;20876;-80
2022/01/23 00:10:12;;;;;;;42.37;39.57;;;7.60;99.90;;;;;;5008572;28;20199;-79
2022/01/23 00:12:46;;;;;;;42.57;39.70;;;7.60;99.90;;;;;;5007113;28;20200;-80
2022/01/23 00:17:56;;;;;;;43.83;40.73;;;7.70;99.90;;;;;;5008862;28;20210;-80
2022/01/23 00:20:23;;;;;;;46.10;42.27;;;7.70;99.90;;;;;;5007695;28;20290;-79
2022/01/23 00:22:53;;;;;;;44.43;41.43;;;7.70;99.90;;;;;;4985788;28;20261;-80
2022/01/23 00:30:49;;;;;;;47.57;44.20;;;7.60;99.90;;;;;;5008640;28;20190;-79
2022/01/23 00:33:16;;;;;;;49.60;46.17;;;7.60;99.90;;;;;;5009378;28;20198;-80
2022/01/23 00:35:43;;;;;;;50.43;46.63;;;7.60;99.90;;;;;;5008490;28;20588;-79
2022/01/23 00:38:11;;;;;;;49.90;46.07;;;7.60;99.90;;;;;;5007243;28;20199;-79
2022/01/23 00:40:39;;;;;;;50.20;46.90;;;7.60;99.90;;;;;;5007017;28;20679;-78
2022/01/23 00:43:26;;;;;;;50.53;47.03;;;7.60;99.90;;;;;;5023703;28;20767;-79
2022/01/23 00:46:07;;;;;;;51.57;47.87;;;7.60;99.90;;;;;;4994723;28;20658;-80
2022/01/23 00:48:36;;;;;;;53.80;49.57;;;7.60;99.90;;;;;;4985493;28;20306;-79
2022/01/23 00:51:01;;;;;;;53.83;50.13;;;7.60;99.90;;;;;;5009376;28;20616;-79
2022/01/23 00:53:27;;;;;;;53.27;49.40;;;7.70;99.90;;;;;;5005902;28;20196;-79
2022/01/23 00:55:53;;;;;;;53.80;50.40;;;7.70;99.90;;;;;;4991308;28;20279;-80
2022/01/23 00:58:18;;;;;;;56.60;52.80;;;7.70;99.90;;;;;;5007050;28;20207;-79
2022/01/23 01:00:44;;;;;;;54.90;51.03;;;7.70;99.90;;;;;;4991532;28;20267;-79
2022/01/23 01:03:10;;;;;;;56.33;52.20;;;7.70;99.90;;;;;;5006723;28;21172;-79
2022/01/23 01:05:36;;;;;;;55.80;51.17;;;7.70;99.90;;;;;;4986978;28;20382;-78
2022/01/23 01:08:04;;;;;;;56.63;52.70;;;7.70;99.90;;;;;;5007210;28;20184;-81
2022/01/23 01:10:40;;;;;;;55.93;52.23;;;7.70;99.90;;;;;;4991360;28;20215;-79
2022/01/23 01:13:10;;;;;;;58.37;53.63;;;7.70;99.90;;;;;;5007580;28;20195;-80
2022/01/23 01:31:51;;;;;;;57.50;53.80;;;7.70;99.90;;;;;;5010075;28;20225;-78
2022/01/23 01:34:36;;;;;;;58.07;54.00;;;7.70;99.90;;;;;;4987952;28;20195;-79
2022/01/23 01:37:03;;;;;;;59.37;55.17;;;7.70;99.90;;;;;;4982143;28;20209;-80
2022/01/23 01:39:29;;;;;;;60.30;56.00;;;7.70;99.90;;;;;;4989118;28;20179;-79
2022/01/23 01:41:55;;;;;;;60.10;55.93;;;7.80;99.90;;;;;;5018672;28;20233;-79
2022/01/23 01:44:23;;;;;;;61.67;57.60;;;7.70;99.90;;;;;;4991364;28;20620;-80
2022/01/23 01:46:49;;;;;;;61.47;57.30;;;7.70;99.90;;;;;;5007351;28;20677;-80
2022/01/23 01:49:25;;;;;;;62.10;58.10;;;7.70;99.90;;;;;;4990664;28;20195;-80
2022/01/23 01:51:52;;;;;;;61.40;57.10;;;7.60;99.90;;;;;;5006873;28;20183;-80
2022/01/23 01:54:20;;;;;;;61.70;57.47;;;7.60;99.90;;;;;;5006439;28;20299;-80
2022/01/23 01:57:04;;;;;;;64.00;58.83;;;7.70;99.90;;;;;;4989647;28;20942;-80
2022/01/23 01:59:47;;;;;;;63.67;59.37;;;7.60;99.90;;;;;;5000423;28;20197;-79
2022/01/23 02:10:32;;;;;;;65.70;60.47;;;7.70;99.90;;;;;;5007748;28;20190;-77
2022/01/23 02:13:09;;;;;;;63.10;58.83;;;7.70;99.90;;;;;;5007456;28;20211;-77
2022/01/23 02:18:42;;;;;;;65.83;61.17;;;7.70;99.90;;;;;;5008449;28;20223;-78
2022/01/23 02:57:08;;;;;;;70.17;65.47;;;7.60;99.90;;;;;;5008563;28;20214;-78
2022/01/23 02:59:39;;;;;;;67.40;62.83;;;7.60;99.90;;;;;;5006617;28;20680;-78
2022/01/23 03:02:14;;;;;;;68.17;63.17;;;7.60;99.90;;;;;;5004992;28;20207;-78
2022/01/23 03:04:50;;;;;;;66.10;60.97;;;7.60;99.90;;;;;;5000705;28;20175;-79
2022/01/23 03:10:02;;;;;;;67.27;62.67;;;7.60;99.90;;;;;;5007872;28;20196;-78
2022/01/23 03:15:24;;;;;;;69.37;64.93;;;7.60;99.90;;;;;;5010924;28;20357;-80
2022/01/23 03:26:23;;;;;;;68.57;64.03;;;7.70;99.90;;;;;;5010972;28;20210;-78
2022/01/23 03:29:18;;;;;;;68.43;63.73;;;7.70;99.90;;;;;;5009043;28;20196;-78
2022/01/23 03:32:00;;;;;;;68.03;63.57;;;7.70;99.90;;;;;;5008768;28;20183;-79
2022/01/23 03:34:27;;;;;;;68.73;64.00;;;7.70;99.90;;;;;;5008656;28;20233;-79
2022/01/23 03:36:54;;;;;;;67.43;62.67;;;7.70;99.90;;;;;;5008861;28;20736;-78
2022/01/23 03:39:20;;;;;;;66.70;62.13;;;7.70;99.90;;;;;;5010265;28;20196;-79
2022/01/23 03:41:46;;;;;;;69.57;64.77;;;7.70;99.90;;;;;;4993546;28;20216;-77
2022/01/23 03:44:14;;;;;;;66.43;62.40;;;7.70;99.90;;;;;;5008023;28;20238;-79
2022/01/23 03:47:13;;;;;;;69.03;64.47;;;7.70;99.90;;;;;;5010793;28;20261;-79
2022/01/23 03:49:35;;;;;;;68.10;63.47;;;7.70;99.90;;;;;;5009570;28;20665;-80
2022/01/23 03:52:12;;;;;;;66.63;61.77;;;7.70;99.90;;;;;;5008116;28;20248;-79
2022/01/23 03:54:39;;;;;;;67.77;63.37;;;7.70;99.90;;;;;;5007732;28;20190;-80
2022/01/23 03:57:07;;;;;;;66.40;61.63;;;7.70;99.90;;;;;;5006931;28;20212;-80
2022/01/23 03:59:34;;;;;;;69.03;64.07;;;7.70;99.90;;;;;;5008726;28;20728;-80
2022/01/23 04:02:00;;;;;;;68.07;63.63;;;7.70;99.90;;;;;;5008843;28;20204;-79
2022/01/23 04:04:42;;;;;;;66.73;62.00;;;7.70;99.90;;;;;;5008822;28;20816;-81
2022/01/23 04:07:15;;;;;;;66.90;62.03;;;7.70;99.90;;;;;;4975829;28;20566;-81
2022/01/23 04:09:42;;;;;;;68.00;63.47;;;7.80;99.90;;;;;;5009630;28;20241;-81
2022/01/23 04:12:11;;;;;;;66.90;62.23;;;7.80;99.90;;;;;;5013744;28;20196;-80
2022/01/23 04:14:45;;;;;;;66.27;61.87;;;7.80;99.90;;;;;;5012163;28;20184;-78
2022/01/23 04:17:51;;;;;;;62.70;58.50;;;7.80;99.90;;;;;;5015171;28;20180;-80
2022/01/23 04:20:08;;;;;;;61.23;57.10;;;7.80;99.90;;;;;;5015506;28;21133;-81
2022/01/23 04:33:45;;;;;;;62.20;58.20;;;7.60;99.90;;;;;;5008034;28;20206;-79
2022/01/23 05:00:36;;;;;;;62.63;58.70;;;7.50;99.90;;;;;;5006856;28;20207;-80
2022/01/23 05:05:48;;;;;;;61.83;56.93;;;7.50;99.90;;;;;;5005611;28;20203;-79
2022/01/23 05:08:18;;;;;;;60.93;56.70;;;7.50;99.90;;;;;;4990396;28;20234;-79
2022/01/23 05:10:45;;;;;;;60.00;55.57;;;7.60;99.90;;;;;;4991966;28;20210;-80
2022/01/23 05:13:11;;;;;;;62.90;58.17;;;7.60;99.90;;;;;;5004472;28;20257;-81
2022/01/23 05:15:37;;;;;;;63.13;58.53;;;7.70;99.90;;;;;;4982525;28;20661;-79
2022/01/23 05:18:03;;;;;;;66.20;61.67;;;7.70;99.90;;;;;;4989878;28;20195;-80
2022/01/23 05:20:30;;;;;;;66.17;61.63;;;7.70;99.90;;;;;;5006789;28;20196;-80
2022/01/23 05:23:02;;;;;;;66.30;61.90;;;7.70;99.90;;;;;;4968778;28;20216;-80
2022/01/23 05:25:30;;;;;;;66.87;62.17;;;7.70;99.90;;;;;;4991218;28;20554;-78
2022/01/23 05:27:56;;;;;;;67.83;63.03;;;7.70;99.90;;;;;;4967035;28;20214;-80
2022/01/23 05:30:23;;;;;;;64.10;59.63;;;7.70;99.90;;;;;;5005825;28;20196;-79
2022/01/23 05:32:48;;;;;;;67.03;61.13;;;7.70;99.90;;;;;;4998822;28;20299;-80
2022/01/23 05:35:21;;;;;;;65.77;60.83;;;7.70;99.90;;;;;;4974340;28;20323;-81
2022/01/23 05:37:48;;;;;;;64.10;59.60;;;7.70;99.90;;;;;;4998506;28;20184;-79
2022/01/23 05:40:16;;;;;;;67.40;61.70;;;7.60;99.90;;;;;;5009167;28;20194;-81
2022/01/23 05:42:42;;;;;;;64.57;59.93;;;7.60;99.90;;;;;;5004959;28;22225;-80
2022/01/23 05:45:08;;;;;;;63.70;59.03;;;7.50;99.90;;;;;;5007758;28;21040;-80
2022/01/23 05:47:36;;;;;;;62.17;57.90;;;7.50;99.90;;;;;;5006049;28;20285;-79
2022/01/23 05:50:02;;;;;;;64.07;59.23;;;7.50;99.90;;;;;;5006457;28;20179;-80
2022/01/23 05:52:28;;;;;;;61.63;57.07;;;7.40;99.90;;;;;;5005287;28;20250;-81
2022/01/23 05:54:54;;;;;;;63.37;58.53;;;7.50;99.90;;;;;;4990852;28;20661;-81
2022/01/23 05:57:19;;;;;;;61.93;57.23;;;7.40;99.90;;;;;;5005641;28;20576;-80
2022/01/23 05:59:45;;;;;;;62.63;57.53;;;7.50;99.90;;;;;;4989158;28;20196;-79
2022/01/23 06:02:11;;;;;;;64.73;59.97;;;7.50;99.90;;;;;;5005598;28;20219;-79
2022/01/23 06:04:36;;;;;;;63.60;58.70;;;7.50;99.90;;;;;;4990286;28;20192;-80
2022/01/23 06:07:03;;;;;;;64.20;59.57;;;7.60;99.90;;;;;;4971281;28;20183;-80
2022/01/23 06:09:29;;;;;;;65.17;60.07;;;7.50;99.90;;;;;;4991338;28;20263;-80
2022/01/23 06:11:55;;;;;;;62.97;58.43;;;7.50;99.90;;;;;;4989529;28;20675;-81
2022/01/23 06:14:20;;;;;;;63.10;57.97;;;7.50;99.90;;;;;;5006649;28;20206;-80
2022/01/23 06:16:46;;;;;;;62.27;57.83;;;7.50;99.90;;;;;;4968002;28;20195;-79
2022/01/23 06:19:12;;;;;;;62.20;57.60;;;7.50;99.90;;;;;;5005309;28;20191;-80
2022/01/23 06:21:38;;;;;;;63.37;58.43;;;7.50;99.90;;;;;;4982977;28;20219;-80
2022/01/23 06:24:07;;;;;;;61.33;56.73;;;7.50;99.90;;;;;;4967770;28;20192;-80
2022/01/23 06:26:45;;;;;;;63.90;59.20;;;7.50;99.90;;;;;;5006187;28;20502;-79
2022/01/23 06:29:12;;;;;;;64.77;60.27;;;7.50;99.90;;;;;;4998488;28;20231;-80
2022/01/23 06:31:38;;;;;;;66.57;60.97;;;7.40;99.90;;;;;;5022729;28;20649;-80
2022/01/23 06:34:06;;;;;;;63.90;59.10;;;7.40;99.90;;;;;;4989542;28;20191;-80
2022/01/23 06:36:36;;;;;;;65.00;60.20;;;7.40;99.90;;;;;;4988426;28;20203;-80
2022/01/23 06:39:04;;;;;;;64.87;59.87;;;7.40;99.90;;;;;;5007155;28;20612;-80
2022/01/23 06:41:30;;;;;;;64.53;59.43;;;7.30;99.90;;;;;;5007062;28;20693;-80
2022/01/23 06:43:55;;;;;;;67.63;62.23;;;7.30;99.90;;;;;;5005757;28;20285;-80
2022/01/23 06:46:21;;;;;;;65.27;60.33;;;7.30;99.90;;;;;;4989666;28;20192;-80
2022/01/23 06:48:47;;;;;;;65.83;60.87;;;7.30;99.90;;;;;;4999273;28;20533;-81
2022/01/23 06:51:12;;;;;;;66.70;61.47;;;7.30;99.90;;;;;;5001950;28;20249;-79
2022/01/23 06:53:38;;;;;;;67.27;61.87;;;7.30;99.90;;;;;;5008462;28;20184;-80
2022/01/23 06:56:04;;;;;;;67.13;61.80;;;7.20;99.90;;;;;;4993949;28;20207;-80
2022/01/23 06:58:29;;;;;;;66.60;61.33;;;7.20;99.90;;;;;;5008219;28;20626;-80
2022/01/23 07:00:55;;;;;;;69.60;63.87;;;7.20;99.90;;;;;;5009181;28;20213;-81
2022/01/23 07:03:21;;;;;;;69.80;64.43;;;7.20;99.90;;;;;;5009889;28;20223;-81
2022/01/23 07:05:46;;;;;;;67.40;62.30;;;7.20;99.90;;;;;;4992667;28;20654;-80
2022/01/23 07:08:12;;;;;;;68.17;63.13;;;7.20;99.90;;;;;;5010592;28;20196;-81
2022/01/23 07:10:38;;;;;;;66.87;61.70;;;7.20;99.90;;;;;;4986963;28;20626;-80
2022/01/23 07:13:03;;;;;;;67.17;62.00;;;7.20;99.90;;;;;;5010056;28;20215;-80
2022/01/23 07:15:29;;;;;;;67.83;62.57;;;7.20;99.90;;;;;;5009870;28;20199;-80
2022/01/23 07:17:55;;;;;;;68.93;63.77;;;7.30;99.90;;;;;;5008262;28;20302;-78
2022/01/23 07:20:20;;;;;;;69.10;63.80;;;7.20;99.90;;;;;;5009684;28;20207;-79
2022/01/23 07:22:46;;;;;;;66.97;61.87;;;7.20;99.90;;;;;;5007608;28;20647;-81
2022/01/23 07:25:12;;;;;;;68.50;63.27;;;7.20;99.90;;;;;;4992514;28;20570;-79
2022/01/23 07:27:44;;;;;;;67.50;62.33;;;7.20;99.90;;;;;;4987823;28;20261;-80
2022/01/23 07:30:23;;;;;;;67.37;62.10;;;7.20;99.90;;;;;;4994217;28;20192;-79
2022/01/23 07:32:49;;;;;;;67.33;62.20;;;7.20;99.90;;;;;;4994908;28;20545;-79
2022/01/23 07:35:15;;;;;;;67.30;61.90;;;7.20;99.90;;;;;;5009737;28;20187;-80
2022/01/23 07:37:40;;;;;;;65.83;60.23;;;7.20;99.90;;;;;;4995101;28;20200;-80
2022/01/23 07:40:07;;;;;;;67.87;62.53;;;7.20;99.90;;;;;;4987706;28;20712;-81
2022/01/23 07:42:32;;;;;;;67.57;62.37;;;7.20;99.90;;;;;;4993317;28;20215;-80
2022/01/23 07:44:58;;;;;;;67.53;61.83;;;7.30;99.90;;;;;;4991916;28;20296;-80
2022/01/23 07:47:24;;;;;;;68.60;63.23;;;7.30;99.90;;;;;;5009477;28;20199;-81
2022/01/23 07:49:50;;;;;;;67.37;62.27;;;7.30;99.90;;;;;;4993154;28;20192;-79
2022/01/23 07:52:19;;;;;;;67.63;62.53;;;7.40;99.90;;;;;;4992364;28;20187;-80
2022/01/23 07:54:45;;;;;;;68.97;63.70;;;7.30;99.90;;;;;;5006233;28;21076;-80
2022/01/23 07:57:11;;;;;;;68.67;63.30;;;7.30;99.90;;;;;;4992146;28;21019;-80
2022/01/23 07:59:37;;;;;;;65.37;60.53;;;7.20;99.90;;;;;;5006508;28;20184;-80
2022/01/23 08:02:03;;;;;;;67.70;62.40;;;7.20;99.90;;;;;;5007938;28;20219;-80
2022/01/23 08:04:29;;;;;;;67.77;62.40;;;7.20;99.90;;;;;;5008432;28;20799;-81
2022/01/23 08:07:08;;;;;;;68.30;62.50;;;7.20;99.90;;;;;;4983603;28;20199;-81
2022/01/23 08:09:35;;;;;;;67.10;61.33;;;7.20;99.90;;;;;;4993681;28;20293;-80
2022/01/23 08:12:01;;;;;;;67.60;62.20;;;7.20;99.90;;;;;;4990605;28;20212;-79
2022/01/23 08:14:26;;;;;;;69.10;63.40;;;7.10;99.90;;;;;;5009364;28;20241;-80
2022/01/23 08:16:52;;;;;;;67.73;62.00;;;7.10;99.90;;;;;;5009472;28;20191;-80
2022/01/23 08:19:18;;;;;;;70.40;64.53;;;7.20;99.90;;;;;;5007206;28;20191;-79
2022/01/23 08:21:44;;;;;;;68.93;63.30;;;7.10;99.90;;;;;;5007121;28;20776;-82
2022/01/23 08:24:11;;;;;;;67.50;62.03;;;7.20;99.90;;;;;;5007987;28;20219;-80
2022/01/23 08:26:37;;;;;;;68.77;63.23;;;7.10;99.90;;;;;;5002257;28;20199;-81
2022/01/23 08:29:04;;;;;;;67.60;61.53;;;7.20;99.90;;;;;;5008493;28;20286;-80
2022/01/23 08:31:30;;;;;;;67.57;61.87;;;7.20;99.90;;;;;;4990903;28;20195;-79
2022/01/23 08:33:55;;;;;;;67.77;61.83;;;7.20;99.90;;;;;;4991547;28;20735;-81
2022/01/23 08:36:21;;;;;;;70.00;64.10;;;7.20;99.90;;;;;;5008695;28;20669;-80
2022/01/23 08:38:47;;;;;;;67.53;61.63;;;7.30;99.90;;;;;;4992713;28;20245;-79
2022/01/23 08:43:44;;;;;;;68.00;62.30;;;7.30;99.90;;;;;;5008496;28;20228;-80
2022/01/23 08:46:10;;;;;;;68.10;62.33;;;7.30;99.90;;;;;;4990816;28;20188;-80
2022/01/23 08:48:36;;;;;;;68.53;62.97;;;7.30;99.90;;;;;;5007489;28;20279;-81
2022/01/23 08:51:02;;;;;;;65.80;60.30;;;7.30;99.90;;;;;;4989866;28;20255;-80
2022/01/23 08:53:28;;;;;;;67.83;61.77;;;7.30;99.90;;;;;;5009180;28;20241;-79
2022/01/23 08:55:53;;;;;;;65.90;60.60;;;7.30;99.90;;;;;;5002857;28;20215;-81
2022/01/23 08:58:19;;;;;;;65.10;59.70;;;7.30;99.90;;;;;;4985137;28;20211;-80
2022/01/23 09:00:45;;;;;;;65.07;59.07;;;7.30;99.90;;;;;;4984896;28;20215;-80
2022/01/23 09:03:12;;;;;;;63.93;58.40;;;7.30;99.90;;;;;;4984053;28;20636;-80
2022/01/23 09:05:38;;;;;;;63.77;58.13;;;7.30;99.90;;;;;;4990539;28;20537;-82
2022/01/23 09:08:04;;;;;;;63.77;58.50;;;7.30;99.90;;;;;;4989516;28;20191;-82
2022/01/23 09:10:39;;;;;;;64.67;58.60;;;7.40;99.90;;;;;;5006478;28;20191;-81
2022/01/23 09:13:15;;;;;;;63.40;57.97;;;7.50;99.90;;;;;;4993590;28;20214;-82
2022/01/23 09:15:40;;;;;;;62.43;56.93;;;7.60;99.90;;;;;;4993288;28;20195;-81
2022/01/23 09:18:06;;;;;;;61.60;56.23;;;7.60;99.90;;;;;;5008901;28;20183;-80
2022/01/23 09:20:32;;;;;;;61.13;55.70;;;7.50;99.90;;;;;;5007452;28;20202;-80
2022/01/23 09:22:58;;;;;;;58.47;53.20;;;7.50;99.90;;;;;;4991293;28;20208;-82
2022/01/23 09:25:24;;;;;;;59.40;53.77;;;7.50;99.90;;;;;;4991184;28;20657;-81
2022/01/23 09:27:49;;;;;;;58.90;53.90;;;7.50;99.90;;;;;;4991314;28;20270;-81
2022/01/23 09:30:22;;;;;;;56.90;52.00;;;7.50;99.90;;;;;;5007759;28;20299;-82
2022/01/23 09:32:49;;;;;;;59.13;53.77;;;7.50;99.90;;;;;;5010459;28;20183;-81
2022/01/23 09:35:16;;;;;;;58.87;53.53;;;7.50;99.90;;;;;;5001869;28;20219;-81
2022/01/23 09:37:42;;;;;;;58.60;53.23;;;7.50;99.90;;;;;;5008066;28;20210;-80
2022/01/23 09:40:09;;;;;;;56.37;51.27;;;7.50;99.90;;;;;;5007341;28;20242;-81
2022/01/23 09:42:43;;;;;;;58.10;52.90;;;7.50;99.90;;;;;;5008114;28;20227;-80
2022/01/23 09:45:12;;;;;;;56.80;51.60;;;7.50;99.90;;;;;;4993258;28;20243;-80
2022/01/23 09:47:38;;;;;;;55.37;50.40;;;7.60;99.90;;;;;;4993049;28;20196;-82
2022/01/23 09:50:07;;;;;;;56.27;51.20;;;7.50;99.90;;;;;;4997444;28;20199;-80
2022/01/23 09:52:35;;;;;;;55.13;49.57;;;7.50;99.90;;;;;;5014622;28;20189;-82
2022/01/23 09:55:09;;;;;;;54.97;49.83;;;7.50;99.90;;;;;;4996180;28;20196;-81
2022/01/23 09:57:37;;;;;;;54.97;50.10;;;7.60;99.90;;;;;;5010188;28;20214;-81
2022/01/23 10:00:07;;;;;;;53.40;48.23;;;7.60;99.90;;;;;;5010920;28;20187;-83
2022/01/23 10:02:33;;;;;;;51.60;46.90;;;7.70;99.90;;;;;;4994303;28;20227;-81
2022/01/23 10:04:59;;;;;;;52.80;47.43;;;7.70;99.90;;;;;;4993917;28;20191;-82
2022/01/23 10:07:25;;;;;;;51.73;46.50;;;7.70;99.90;;;;;;5007779;28;20553;-82
2022/01/23 10:10:06;;;;;;;48.70;44.17;;;7.70;99.90;;;;;;4985653;28;20203;-80
2022/01/23 10:12:33;;;;;;;48.03;43.43;;;7.70;99.90;;;;;;4987334;28;20231;-80
2022/01/23 10:14:58;;;;;;;49.70;45.20;;;7.70;99.90;;;;;;5008468;28;20187;-81
2022/01/23 10:17:24;;;;;;;49.57;45.07;;;7.70;99.90;;;;;;4969209;28;20199;-81
2022/01/23 10:19:50;;;;;;;47.37;42.97;;;7.80;99.90;;;;;;5010228;28;20602;-83
2022/01/23 10:22:17;;;;;;;50.43;45.87;;;7.80;99.90;;;;;;4991832;28;20294;-81
2022/01/23 10:24:43;;;;;;;50.63;46.30;;;7.90;99.90;;;;;;5007293;28;20188;-81
2022/01/23 10:27:09;;;;;;;49.80;45.43;;;8.00;99.90;;;;;;4991561;28;20282;-82
2022/01/23 10:29:37;;;;;;;52.60;48.03;;;8.10;99.90;;;;;;4992491;28;20274;-81
2022/01/23 10:32:11;;;;;;;49.27;45.00;;;8.20;99.90;;;;;;5007987;28;20196;-81
2022/01/23 10:34:56;;;;;;;47.20;43.20;;;8.20;99.90;;;;;;5007570;28;20181;-80
2022/01/23 10:37:30;;;;;;;49.07;45.10;;;8.30;99.90;;;;;;5009536;28;20191;-82
2022/01/23 10:39:57;;;;;;;47.30;43.37;;;8.30;99.90;;;;;;5007705;28;20191;-82
2022/01/23 10:42:49;;;;;;;47.17;43.10;;;8.30;99.90;;;;;;5007647;28;20215;-81
2022/01/23 10:48:42;;;;;;;47.50;43.50;;;8.40;99.90;;;;;;5008869;28;20194;-82
2022/01/23 10:51:19;;;;;;;47.43;43.03;;;8.50;99.90;;;;;;5007324;28;20262;-81
2022/01/23 10:54:05;;;;;;;47.90;43.70;;;8.50;99.90;;;;;;5000902;28;20613;-81
2022/01/23 10:56:34;;;;;;;45.73;42.03;;;8.60;99.90;;;;;;5009568;28;20249;-81
2022/01/23 10:59:14;;;;;;;45.10;41.10;;;8.60;99.90;;;;;;5001397;28;20654;-82
2022/01/23 11:02:02;;;;;;;42.67;38.27;;;8.70;99.90;;;;;;5001855;28;20187;-82
2022/01/23 11:04:28;;;;;;;39.43;35.33;;;8.70;99.90;;;;;;5008317;28;20191;-81
2022/01/23 11:07:03;;;;;;;36.13;32.53;;;8.60;99.90;;;;;;4991110;28;20570;-83
2022/01/23 11:09:36;;;;;;;38.03;32.97;;;8.50;99.90;;;;;;4982976;28;20270;-82
2022/01/23 11:12:13;;;;;;;40.20;32.90;;;8.40;99.90;;;;;;5007334;28;20250;-81
2022/01/23 11:17:26;;;;;;;34.30;30.80;;;8.30;99.90;;;;;;5008640;28;20198;-81
2022/01/23 11:19:58;;;;;;;35.37;31.67;;;8.30;99.90;;;;;;4991090;28;20674;-81
2022/01/23 11:22:34;;;;;;;32.60;29.20;;;8.30;99.90;;;;;;5015230;28;20666;-81
2022/01/23 11:25:08;;;;;;;33.33;29.83;;;8.30;99.90;;;;;;4985433;28;20186;-82
2022/01/23 11:27:37;;;;;;;32.70;29.30;;;8.30;99.90;;;;;;5008013;28;20207;-80
2022/01/23 11:30:13;;;;;;;32.87;29.47;;;8.20;99.90;;;;;;5009033;28;20188;-80
2022/01/23 11:32:41;;;;;;;32.93;29.50;;;8.30;99.90;;;;;;5017021;28;20206;-80
2022/01/23 11:35:14;;;;;;;32.97;29.40;;;8.30;99.90;;;;;;5011785;28;20311;-81
2022/01/23 11:37:50;;;;;;;36.13;29.90;;;8.30;99.90;;;;;;5013934;28;20187;-80
2022/01/23 11:40:43;;;;;;;32.43;28.60;;;8.20;99.90;;;;;;4992888;28;20309;-79
2022/01/23 11:54:41;;;;;;;35.70;29.90;;;8.30;99.90;;;;;;5014918;28;20183;-82
2022/01/23 11:57:35;;;;;;;33.13;29.27;;;8.30;99.90;;;;;;5007485;28;20241;-81
2022/01/23 12:00:05;;;;;;;34.87;29.47;;;8.20;99.90;;;;;;5010076;28;20310;-80
2022/01/23 12:02:42;;;;;;;32.60;27.43;;;8.20;99.90;;;;;;5008767;28;20207;-82
2022/01/23 12:05:15;;;;;;;32.80;27.13;;;8.20;99.90;;;;;;4972932;28;20191;-81
2022/01/23 12:07:42;;;;;;;37.33;28.10;;;8.20;99.90;;;;;;5009122;28;20274;-81
2022/01/23 12:10:20;;;;;;;31.17;26.80;;;8.20;99.90;;;;;;5006769;28;20630;-82
2022/01/23 12:12:49;;;;;;;33.93;27.53;;;8.20;99.90;;;;;;5007749;28;20242;-81
2022/01/23 12:18:15;;;;;;;32.53;25.73;;;8.20;99.90;;;;;;5011572;28;20676;-82
2022/01/23 12:20:42;;;;;;;34.17;26.87;;;8.10;99.90;;;;;;5009973;28;20192;-80
2022/01/23 12:23:08;;;;;;;35.27;27.43;;;8.10;99.90;;;;;;4993525;28;20251;-82
2022/01/23 12:26:06;;;;;;;32.37;26.17;;;8.20;99.90;;;;;;5009156;28;20192;-82
2022/01/23 12:28:43;;;;;;;31.73;26.63;;;8.20;99.90;;;;;;5009324;28;20219;-81
2022/01/23 12:31:14;;;;;;;34.43;25.70;;;8.20;99.90;;;;;;5002178;28;20187;-82
2022/01/23 12:33:40;;;;;;;31.37;26.27;;;8.20;99.90;;;;;;5003017;28;20643;-81
2022/01/23 12:36:19;;;;;;;30.40;26.13;;;8.20;99.90;;;;;;5007956;28;20309;-81
2022/01/23 12:39:13;;;;;;;33.77;25.57;;;8.20;99.90;;;;;;5003491;28;20187;-81
2022/01/23 12:41:53;;;;;;;32.17;25.47;;;8.20;99.90;;;;;;4993285;28;20236;-80
2022/01/23 12:44:22;;;;;;;34.20;27.00;;;8.20;99.90;;;;;;5007409;28;20724;-82
2022/01/23 12:46:51;;;;;;;30.73;25.43;;;8.20;99.90;;;;;;5006973;28;20696;-81
2022/01/23 12:49:20;;;;;;;33.93;26.53;;;8.20;99.90;;;;;;5020344;28;20202;-81
2022/01/23 12:51:48;;;;;;;34.80;26.43;;;8.20;99.90;;;;;;5011790;28;20739;-83
2022/01/23 12:54:20;;;;;;;30.80;26.10;;;8.30;99.90;;;;;;5009595;28;20291;-81
2022/01/23 12:56:49;;;;;;;30.53;26.13;;;8.30;99.90;;;;;;4994288;28;20247;-82
2022/01/23 12:59:30;;;;;;;32.80;27.40;;;8.50;99.90;;;;;;5009505;28;20558;-82
2022/01/23 13:02:03;;;;;;;34.03;26.57;;;8.50;99.90;;;;;;5010736;28;20207;-81
2022/01/23 13:04:34;;;;;;;40.73;27.90;;;8.60;99.90;;;;;;5005868;28;20188;-82
2022/01/23 13:07:19;;;;;;;31.57;26.93;;;8.60;99.90;;;;;;5012000;28;20223;-82
2022/01/23 13:10:28;;;;;;;29.00;25.90;;;8.70;99.90;;;;;;5001765;28;20705;-81
2022/01/23 13:32:15;;;;;;;28.60;23.17;;;8.90;99.90;;;;;;5008476;28;20191;-82
2022/01/23 13:34:49;;;;;;;32.10;23.60;;;8.90;99.90;;;;;;5006960;28;20281;-82
2022/01/23 13:37:17;;;;;;;31.47;23.17;;;8.90;99.90;;;;;;5006641;28;20184;-83
2022/01/23 13:39:46;;;;;;;27.83;23.23;;;8.90;99.90;;;;;;4999123;28;20642;-81
2022/01/23 13:53:20;;;;;;;30.67;21.87;;;9.00;99.90;;;;;;5007863;28;20203;-81
2022/01/23 13:58:40;;;;;;;27.93;20.77;;;9.00;99.90;;;;;;5009430;28;20209;-83
2022/01/23 14:03:53;;;;;;;27.40;20.30;;;8.90;99.90;;;;;;5007425;28;20212;-82
2022/01/23 14:06:19;;;;;;;29.17;20.13;;;8.80;99.90;;;;;;4991373;28;20176;-82
2022/01/23 14:09:06;;;;;;;34.60;21.47;;;8.80;99.90;;;;;;4991096;28;20184;-80
2022/01/23 14:11:33;;;;;;;29.00;20.30;;;8.70;99.90;;;;;;5001770;28;20184;-81
2022/01/23 14:14:17;;;;;;;27.90;19.63;;;8.70;99.90;;;;;;5006166;28;20743;-82
2022/01/23 14:16:44;;;;;;;30.73;20.53;;;8.70;99.90;;;;;;5006302;28;20896;-83
2022/01/23 14:19:26;;;;;;;27.40;19.97;;;8.80;99.90;;;;;;4990535;28;20319;-82
2022/01/23 14:21:59;;;;;;;32.90;20.77;;;8.70;99.90;;;;;;5006655;28;20215;-81
2022/01/23 14:24:29;;;;;;;29.57;21.13;;;8.70;99.90;;;;;;5007191;28;20277;-81
2022/01/23 14:27:01;;;;;;;30.80;21.20;;;8.80;99.90;;;;;;5000262;28;20587;-81
2022/01/23 14:29:29;;;;;;;32.13;22.10;;;8.80;99.90;;;;;;5005213;28;20560;-81
2022/01/23 14:32:04;;;;;;;32.13;21.40;;;8.80;99.90;;;;;;5008081;28;20262;-81
2022/01/23 14:34:29;;;;;;;35.47;22.20;;;8.80;99.90;;;;;;5008446;28;20564;-83
2022/01/23 14:37:01;;;;;;;31.27;20.63;;;8.80;99.90;;;;;;5008204;28;20270;-83
2022/01/23 14:39:27;;;;;;;32.00;20.87;;;8.80;99.90;;;;;;5009242;28;20738;-83
2022/01/23 14:41:52;;;;;;;38.03;21.80;;;8.80;99.90;;;;;;4962664;28;20235;-83
2022/01/23 14:44:21;;;;;;;34.47;22.03;;;8.80;99.90;;;;;;4966818;28;20357;-82
2022/01/23 14:46:49;;;;;;;32.57;20.87;;;8.80;99.90;;;;;;5005003;28;20284;-81
2022/01/23 14:49:23;;;;;;;30.40;19.30;;;8.80;99.90;;;;;;5005079;28;21020;-84
2022/01/23 14:51:51;;;;;;;34.40;21.87;;;8.80;99.90;;;;;;4976731;28;20265;-82
2022/01/23 14:54:18;;;;;;;31.27;20.60;;;8.80;99.90;;;;;;4985316;28;20222;-82
2022/01/23 14:56:44;;;;;;;34.63;21.63;;;8.70;99.90;;;;;;5007485;28;21564;-82
2022/01/23 14:59:10;;;;;;;37.33;22.83;;;8.70;99.90;;;;;;4989848;28;20274;-81
2022/01/23 15:01:37;;;;;;;34.37;21.60;;;8.60;99.90;;;;;;4990342;28;20215;-81
2022/01/23 15:04:09;;;;;;;29.23;19.87;;;8.60;99.90;;;;;;5006392;28;20223;-82
2022/01/23 15:06:42;;;;;;;32.67;20.93;;;8.60;99.90;;;;;;5008590;28;20243;-82
2022/01/23 15:09:10;;;;;;;29.20;20.73;;;8.60;99.90;;;;;;5010375;28;20263;-84
2022/01/23 15:11:38;;;;;;;30.53;20.67;;;8.60;99.90;;;;;;4996342;28;20294;-85
2022/01/23 15:14:05;;;;;;;31.77;20.17;;;8.60;99.90;;;;;;5010291;28;20214;-81
2022/01/23 15:16:33;;;;;;;35.27;21.73;;;8.60;99.90;;;;;;4997528;28;20768;-80
2022/01/23 15:18:58;;;;;;;31.67;21.10;;;8.50;99.90;;;;;;4993273;28;20231;-81
2022/01/23 15:21:24;;;;;;;32.73;20.30;;;8.40;99.90;;;;;;5008756;28;20655;-80
2022/01/23 15:23:56;;;;;;;31.57;20.80;;;8.40;99.90;;;;;;5010439;28;20243;-80
2022/01/23 15:26:28;;;;;;;33.47;21.43;;;8.20;99.90;;;;;;4995328;28;20265;-83
2022/01/23 15:28:54;;;;;;;30.13;20.47;;;8.20;99.90;;;;;;5002550;28;20681;-81
2022/01/23 15:31:20;;;;;;;30.50;19.77;;;8.10;99.90;;;;;;5002167;28;20518;-79
2022/01/23 15:33:45;;;;;;;34.50;21.57;;;8.10;99.90;;;;;;5009696;28;20230;-79
2022/01/23 15:36:11;;;;;;;33.60;20.87;;;8.10;99.90;;;;;;5009542;28;20226;-83
2022/01/23 15:38:42;;;;;;;33.03;21.07;;;8.20;99.90;;;;;;4975667;28;20234;-81
2022/01/23 15:41:08;;;;;;;33.00;21.17;;;8.20;99.90;;;;;;4994240;28;20223;-82
2022/01/23 15:43:34;;;;;;;33.40;21.90;;;8.20;99.90;;;;;;5014103;28;20300;-83
2022/01/23 15:46:00;;;;;;;33.00;21.47;;;8.30;99.90;;;;;;5014134;28;20239;-83
2022/01/23 15:48:30;;;;;;;37.63;22.57;;;8.30;99.90;;;;;;4995725;28;20220;-83
2022/01/23 15:50:57;;;;;;;37.93;22.03;;;8.30;99.90;;;;;;4990931;28;20223;-82